sensor_id;sensor_type;location;lat;lon;timestamp;pressure;altitude;pressure_sealevel;temperature;humidity
69911;BME280;63555;49.920;17.868;2022-12-18T00:01:22;100182.72;;;-0.38;89.64
69911;BME280;63555;49.920;17.868;2022-12-18T00:06:24;100185.31;;;-0.38;89.43
69911;BME280;63555;49.920;17.868;2022-12-18T00:11:28;100191.38;;;-0.39;89.60
69911;BME280;63555;49.920;17.868;2022-12-18T00:16:29;100193.97;;;-0.39;89.30
69911;BME280;63555;49.920;17.868;2022-12-18T00:21:35;100197.44;;;-0.41;89.60
69911;BME280;63555;49.920;17.868;2022-12-18T00:26:37;100203.50;;;-0.44;89.28
69911;BME280;63555;49.920;17.868;2022-12-18T00:31:38;100208.69;;;-0.45;89.35
69911;BME280;63555;49.920;17.868;2022-12-18T00:36:39;100212.16;;;-0.43;89.29
69911;BME280;63555;49.920;17.868;2022-12-18T00:41:40;100212.16;;;-0.43;89.50
69911;BME280;63555;49.920;17.868;2022-12-18T00:46:58;100214.72;;;-0.43;89.40
69911;BME280;63555;49.920;17.868;2022-12-18T00:51:59;100219.94;;;-0.46;89.56
69911;BME280;63555;49.920;17.868;2022-12-18T00:56:59;100220.81;;;-0.49;89.33
69911;BME280;63555;49.920;17.868;2022-12-18T01:01:59;100227.78;;;-0.54;89.25
69911;BME280;63555;49.920;17.868;2022-12-18T01:07:00;100240.75;;;-0.57;89.29
69911;BME280;63555;49.920;17.868;2022-12-18T01:12:00;100245.94;;;-0.58;89.14
69911;BME280;63555;49.920;17.868;2022-12-18T01:17:01;100253.72;;;-0.58;89.20
69911;BME280;63555;49.920;17.868;2022-12-18T01:22:03;100256.31;;;-0.61;89.16
69911;BME280;63555;49.920;17.868;2022-12-18T01:27:04;100252.88;;;-0.62;88.97
69911;BME280;63555;49.920;17.868;2022-12-18T01:32:04;100262.34;;;-0.61;89.24
69911;BME280;63555;49.920;17.868;2022-12-18T01:37:05;100270.13;;;-0.58;89.34
69911;BME280;63555;49.920;17.868;2022-12-18T01:42:11;100276.16;;;-0.57;89.32
69911;BME280;63555;49.920;17.868;2022-12-18T01:52:43;100274.44;;;-0.58;89.13
69911;BME280;63555;49.920;17.868;2022-12-18T01:57:44;100288.25;;;-0.59;88.88
69911;BME280;63555;49.920;17.868;2022-12-18T02:02:46;100279.63;;;-0.60;88.89
69911;BME280;63555;49.920;17.868;2022-12-18T02:18:19;100299.47;;;-0.56;89.39
69911;BME280;63555;49.920;17.868;2022-12-18T02:29:10;100316.72;;;-0.53;89.06
69911;BME280;63555;49.920;17.868;2022-12-18T02:34:13;100327.06;;;-0.52;89.07
69911;BME280;63555;49.920;17.868;2022-12-18T02:39:15;100318.44;;;-0.51;89.27
69911;BME280;63555;49.920;17.868;2022-12-18T02:44:16;100320.16;;;-0.50;89.14
69911;BME280;63555;49.920;17.868;2022-12-18T02:59:38;100331.34;;;-0.46;89.41
69911;BME280;63555;49.920;17.868;2022-12-18T03:04:47;100331.34;;;-0.46;89.20
69911;BME280;63555;49.920;17.868;2022-12-18T03:09:52;100336.53;;;-0.46;89.36
69911;BME280;63555;49.920;17.868;2022-12-18T03:14:59;100333.97;;;-0.51;89.26
69911;BME280;63555;49.920;17.868;2022-12-18T03:20:09;100342.63;;;-0.53;89.34
69911;BME280;63555;49.920;17.868;2022-12-18T03:25:13;100349.53;;;-0.54;88.90
69911;BME280;63555;49.920;17.868;2022-12-18T03:30:15;100362.50;;;-0.55;88.97
69911;BME280;63555;49.920;17.868;2022-12-18T03:35:20;100362.50;;;-0.58;88.95
69911;BME280;63555;49.920;17.868;2022-12-18T03:40:26;100366.84;;;-0.59;88.90
69911;BME280;63555;49.920;17.868;2022-12-18T03:45:35;100382.38;;;-0.60;88.75
69911;BME280;63555;49.920;17.868;2022-12-18T03:50:56;100389.31;;;-0.62;88.89
69911;BME280;63555;49.920;17.868;2022-12-18T03:55:58;100397.06;;;-0.62;89.09
69911;BME280;63555;49.920;17.868;2022-12-18T04:01:02;100399.66;;;-0.61;88.97
69911;BME280;63555;49.920;17.868;2022-12-18T04:06:05;100401.38;;;-0.60;89.05
69911;BME280;63555;49.920;17.868;2022-12-18T04:11:06;100399.66;;;-0.61;89.00
69911;BME280;63555;49.920;17.868;2022-12-18T04:16:07;100399.66;;;-0.59;89.28
69911;BME280;63555;49.920;17.868;2022-12-18T04:21:07;100402.22;;;-0.58;88.89
69911;BME280;63555;49.920;17.868;2022-12-18T04:26:08;100407.41;;;-0.56;89.11
69911;BME280;63555;49.920;17.868;2022-12-18T04:31:08;100415.19;;;-0.56;89.21
69911;BME280;63555;49.920;17.868;2022-12-18T04:36:08;100421.22;;;-0.57;88.93
69911;BME280;63555;49.920;17.868;2022-12-18T04:41:09;100429.00;;;-0.59;88.68
69911;BME280;63555;49.920;17.868;2022-12-18T04:46:09;100434.19;;;-0.62;88.76
69911;BME280;63555;49.920;17.868;2022-12-18T04:51:10;100429.03;;;-0.67;88.48
69911;BME280;63555;49.920;17.868;2022-12-18T04:56:12;100434.25;;;-0.73;88.45
69911;BME280;63555;49.920;17.868;2022-12-18T05:01:15;100447.19;;;-0.77;88.66
69911;BME280;63555;49.920;17.868;2022-12-18T05:06:16;100446.34;;;-0.79;88.38
69911;BME280;63555;49.920;17.868;2022-12-18T05:11:16;100446.34;;;-0.84;88.52
69911;BME280;63555;49.920;17.868;2022-12-18T05:16:16;100440.28;;;-0.89;88.28
69911;BME280;63555;49.920;17.868;2022-12-18T05:21:17;100448.91;;;-0.87;88.68
69911;BME280;63555;49.920;17.868;2022-12-18T05:26:18;100443.78;;;-0.84;88.56
69911;BME280;63555;49.920;17.868;2022-12-18T05:31:18;100460.16;;;-0.82;88.59
69911;BME280;63555;49.920;17.868;2022-12-18T05:36:19;100458.44;;;-0.86;88.45
69911;BME280;63555;49.920;17.868;2022-12-18T05:41:19;100465.34;;;-0.85;88.53
69911;BME280;63555;49.920;17.868;2022-12-18T05:46:19;100467.94;;;-0.83;88.55
69911;BME280;63555;49.920;17.868;2022-12-18T05:51:21;100475.69;;;-0.82;88.43
69911;BME280;63555;49.920;17.868;2022-12-18T05:56:22;100467.94;;;-0.82;88.27
69911;BME280;63555;49.920;17.868;2022-12-18T06:01:25;100460.16;;;-0.80;88.46
69911;BME280;63555;49.920;17.868;2022-12-18T06:06:27;100469.66;;;-0.79;88.42
69911;BME280;63555;49.920;17.868;2022-12-18T06:11:28;100485.19;;;-0.81;88.47
69911;BME280;63555;49.920;17.868;2022-12-18T06:16:29;100492.97;;;-0.85;87.99
69911;BME280;63555;49.920;17.868;2022-12-18T06:21:31;100508.47;;;-0.88;88.49
69911;BME280;63555;49.920;17.868;2022-12-18T06:26:31;100506.75;;;-0.92;88.30
69911;BME280;63555;49.920;17.868;2022-12-18T06:31:32;100515.41;;;-0.98;87.89
69911;BME280;63555;49.920;17.868;2022-12-18T06:36:32;100523.16;;;-1.00;88.16
69911;BME280;63555;49.920;17.868;2022-12-18T06:41:33;100530.94;;;-1.00;88.41
69911;BME280;63555;49.920;17.868;2022-12-18T06:46:33;100542.16;;;-1.01;88.39
69911;BME280;63555;49.920;17.868;2022-12-18T06:51:33;100549.91;;;-1.10;87.92
69911;BME280;63555;49.920;17.868;2022-12-18T06:56:34;100551.66;;;-1.15;87.87
69911;BME280;63555;49.920;17.868;2022-12-18T07:01:34;100558.53;;;-1.23;87.80
69911;BME280;63555;49.920;17.868;2022-12-18T07:06:35;100574.06;;;-1.24;87.60
69911;BME280;63555;49.920;17.868;2022-12-18T07:11:35;100576.66;;;-1.20;88.28
69911;BME280;63555;49.920;17.868;2022-12-18T07:16:35;100586.16;;;-1.23;87.34
69911;BME280;63555;49.920;17.868;2022-12-18T07:21:36;100594.78;;;-1.26;87.86
69911;BME280;63555;49.920;17.868;2022-12-18T07:26:36;100602.53;;;-1.24;87.82
69911;BME280;63555;49.920;17.868;2022-12-18T07:31:36;100599.09;;;-1.25;87.83
69911;BME280;63555;49.920;17.868;2022-12-18T07:36:37;100610.28;;;-1.24;87.45
69911;BME280;63555;49.920;17.868;2022-12-18T07:41:37;100624.09;;;-1.24;87.33
69911;BME280;63555;49.920;17.868;2022-12-18T07:46:38;100624.97;;;-1.25;87.40
69911;BME280;63555;49.920;17.868;2022-12-18T07:51:38;100612.03;;;-1.25;87.46
69911;BME280;63555;49.920;17.868;2022-12-18T07:56:39;100621.50;;;-1.29;87.17
69911;BME280;63555;49.920;17.868;2022-12-18T08:01:39;100620.63;;;-1.34;87.03
69911;BME280;63555;49.920;17.868;2022-12-18T08:06:40;100618.88;;;-1.42;87.28
69911;BME280;63555;49.920;17.868;2022-12-18T08:11:40;100624.03;;;-1.53;86.57
69911;BME280;63555;49.920;17.868;2022-12-18T08:16:40;100619.69;;;-1.58;86.70
69911;BME280;63555;49.920;17.868;2022-12-18T08:21:40;100637.78;;;-1.62;86.45
69911;BME280;63555;49.920;17.868;2022-12-18T08:26:41;100636.06;;;-1.63;86.36
69911;BME280;63555;49.920;17.868;2022-12-18T08:31:43;100635.22;;;-1.63;86.62
69911;BME280;63555;49.920;17.868;2022-12-18T08:36:43;100648.13;;;-1.62;86.52
69911;BME280;63555;49.920;17.868;2022-12-18T08:41:44;100652.47;;;-1.57;86.69
69911;BME280;63555;49.920;17.868;2022-12-18T08:47:05;100642.16;;;-1.51;86.71
69911;BME280;63555;49.920;17.868;2022-12-18T08:52:06;100662.00;;;-1.47;86.67
69911;BME280;63555;49.920;17.868;2022-12-18T08:57:06;100660.28;;;-1.45;87.15
69911;BME280;63555;49.920;17.868;2022-12-18T09:02:11;100655.97;;;-1.42;87.11
69911;BME280;63555;49.920;17.868;2022-12-18T09:07:11;100654.25;;;-1.41;86.95
69911;BME280;63555;49.920;17.868;2022-12-18T09:12:12;100673.25;;;-1.36;87.03
69911;BME280;63555;49.920;17.868;2022-12-18T09:17:12;100657.72;;;-1.35;87.06
69911;BME280;63555;49.920;17.868;2022-12-18T09:22:13;100668.06;;;-1.35;87.25
69911;BME280;63555;49.920;17.868;2022-12-18T09:27:13;100668.06;;;-1.38;87.33
69911;BME280;63555;49.920;17.868;2022-12-18T09:32:14;100652.53;;;-1.36;87.54
69911;BME280;63555;49.920;17.868;2022-12-18T09:37:14;100643.91;;;-1.34;87.54
69911;BME280;63555;49.920;17.868;2022-12-18T09:42:20;100648.22;;;-1.34;87.36
69911;BME280;63555;49.920;17.868;2022-12-18T09:47:36;100642.19;;;-1.32;87.42
69911;BME280;63555;49.920;17.868;2022-12-18T09:52:45;100668.06;;;-1.38;86.67
69911;BME280;63555;49.920;17.868;2022-12-18T09:57:52;100664.59;;;-1.40;87.23
69911;BME280;63555;49.920;17.868;2022-12-18T10:03:00;100649.97;;;-1.33;87.25
69911;BME280;63555;49.920;17.868;2022-12-18T10:08:13;100641.31;;;-1.37;86.90
69911;BME280;63555;49.920;17.868;2022-12-18T10:13:46;100629.22;;;-1.45;86.93
69911;BME280;63555;49.920;17.868;2022-12-18T10:29:20;100627.44;;;-1.69;86.30
69911;BME280;63555;49.920;17.868;2022-12-18T10:34:21;100635.13;;;-1.74;86.44
69911;BME280;63555;49.920;17.868;2022-12-18T10:39:23;100633.22;;;-2.13;85.94
69911;BME280;63555;49.920;17.868;2022-12-18T10:44:28;100620.78;;;-2.66;85.09
69911;BME280;63555;49.920;17.868;2022-12-18T10:49:33;100629.03;;;-3.09;85.99
69911;BME280;63555;49.920;17.868;2022-12-18T10:54:35;100627.09;;;-3.32;86.30
69911;BME280;63555;49.920;17.868;2022-12-18T10:59:51;100628.69;;;-3.43;87.04
69911;BME280;63555;49.920;17.868;2022-12-18T11:04:52;100626.09;;;-3.44;87.19
69911;BME280;63555;49.920;17.868;2022-12-18T11:10:16;100639.72;;;-3.53;86.79
69911;BME280;63555;49.920;17.868;2022-12-18T11:15:30;100637.94;;;-3.59;86.99
69911;BME280;63555;49.920;17.868;2022-12-18T11:20:35;100638.78;;;-3.58;87.57
69911;BME280;63555;49.920;17.868;2022-12-18T11:25:36;100631.03;;;-3.60;87.52
69911;BME280;63555;49.920;17.868;2022-12-18T11:30:37;100638.09;;;-3.46;88.31
69911;BME280;63555;49.920;17.868;2022-12-18T11:36:04;100645.16;;;-3.30;88.16
69911;BME280;63555;49.920;17.868;2022-12-18T11:46:37;100665.31;;;-2.91;88.46
69911;BME280;63555;49.920;17.868;2022-12-18T12:07:59;100650.66;;;-2.94;87.75
69911;BME280;63555;49.920;17.868;2022-12-18T12:18:42;100660.19;;;-2.86;87.95
69911;BME280;63555;49.920;17.868;2022-12-18T12:24:01;100653.25;;;-2.94;87.63
69911;BME280;63555;49.920;17.868;2022-12-18T12:29:13;100655.78;;;-2.98;87.96
69911;BME280;63555;49.920;17.868;2022-12-18T12:39:27;100658.13;;;-3.24;87.32
69911;BME280;63555;49.920;17.868;2022-12-18T12:44:34;100654.75;;;-3.17;88.12
69911;BME280;63555;49.920;17.868;2022-12-18T12:49:37;100652.22;;;-3.12;87.96
69911;BME280;63555;49.920;17.868;2022-12-18T12:54:39;100658.13;;;-3.23;87.57
69911;BME280;63555;49.920;17.868;2022-12-18T13:04:57;100665.50;;;-3.53;87.47
69911;BME280;63555;49.920;17.868;2022-12-18T13:20:33;100654.88;;;-3.77;87.25
69911;BME280;63555;49.920;17.868;2022-12-18T13:25:36;100660.72;;;-3.91;87.17
69911;BME280;63555;49.920;17.868;2022-12-18T13:30:44;100665.66;;;-4.07;87.02
69911;BME280;63555;49.920;17.868;2022-12-18T13:51:08;100660.84;;;-4.40;87.23
69911;BME280;63555;49.920;17.868;2022-12-18T13:56:09;100675.34;;;-4.47;86.93
69911;BME280;63555;49.920;17.868;2022-12-18T14:01:22;100672.59;;;-4.58;86.83
69911;BME280;63555;49.920;17.868;2022-12-18T14:06:23;100676.03;;;-4.57;87.16
69911;BME280;63555;49.920;17.868;2022-12-18T14:11:24;100688.91;;;-4.57;87.00
69911;BME280;63555;49.920;17.868;2022-12-18T14:16:25;100686.09;;;-4.72;86.81
69911;BME280;63555;49.920;17.868;2022-12-18T14:21:27;100692.88;;;-4.77;86.83
69911;BME280;63555;49.920;17.868;2022-12-18T14:26:29;100691.09;;;-4.80;86.95
69911;BME280;63555;49.920;17.868;2022-12-18T14:31:31;100706.34;;;-4.91;86.30
69911;BME280;63555;49.920;17.868;2022-12-18T14:36:31;100710.28;;;-5.11;86.35
69911;BME280;63555;49.920;17.868;2022-12-18T14:41:32;100709.97;;;-5.25;86.43
69911;BME280;63555;49.920;17.868;2022-12-18T14:46:36;100709.03;;;-5.30;86.55
69911;BME280;63555;49.920;17.868;2022-12-18T14:51:37;100714.84;;;-5.38;86.21
69911;BME280;63555;49.920;17.868;2022-12-18T14:56:44;100717.75;;;-5.64;86.06
69911;BME280;63555;49.920;17.868;2022-12-18T15:02:01;100725.19;;;-5.78;86.06
69911;BME280;63555;49.920;17.868;2022-12-18T15:12:24;100733.88;;;-5.71;86.62
69911;BME280;63555;49.920;17.868;2022-12-18T15:17:26;100742.34;;;-5.77;86.47
69911;BME280;63555;49.920;17.868;2022-12-18T15:22:35;100747.25;;;-5.86;85.99
69911;BME280;63555;49.920;17.868;2022-12-18T15:27:36;100746.19;;;-5.97;85.78
69911;BME280;63555;49.920;17.868;2022-12-18T15:32:41;100753.78;;;-6.01;86.22
69911;BME280;63555;49.920;17.868;2022-12-18T15:37:42;100764.03;;;-6.03;86.48
69911;BME280;63555;49.920;17.868;2022-12-18T15:42:43;100771.66;;;-6.06;85.84
69911;BME280;63555;49.920;17.868;2022-12-18T15:48:23;100771.41;;;-6.15;86.10
69911;BME280;63555;49.920;17.868;2022-12-18T15:53:25;100775.44;;;-6.26;85.71
69911;BME280;63555;49.920;17.868;2022-12-18T15:58:28;100753.56;;;-6.45;84.90
69911;BME280;63555;49.920;17.868;2022-12-18T16:03:28;100766.75;;;-6.66;85.11
69911;BME280;63555;49.920;17.868;2022-12-18T16:08:29;100764.56;;;-6.84;84.84
69911;BME280;63555;49.920;17.868;2022-12-18T16:13:30;100758.25;;;-6.95;84.31
69911;BME280;63555;49.920;17.868;2022-12-18T16:18:30;100759.78;;;-7.01;84.78
69911;BME280;63555;49.920;17.868;2022-12-18T16:23:30;100750.22;;;-7.07;84.30
69911;BME280;63555;49.920;17.868;2022-12-18T16:28:31;100734.47;;;-7.21;83.47
69911;BME280;63555;49.920;17.868;2022-12-18T16:33:31;100721.81;;;-7.46;83.15
69911;BME280;63555;49.920;17.868;2022-12-18T16:38:32;100721.81;;;-7.76;82.92
69911;BME280;63555;49.920;17.868;2022-12-18T16:43:32;100728.69;;;-8.02;82.39
69911;BME280;63555;49.920;17.868;2022-12-18T16:48:32;100741.59;;;-8.26;81.87
69911;BME280;63555;49.920;17.868;2022-12-18T16:53:33;100744.41;;;-8.45;82.04
69911;BME280;63555;49.920;17.868;2022-12-18T16:58:33;100735.34;;;-8.62;81.98
69911;BME280;63555;49.920;17.868;2022-12-18T17:03:34;100726.81;;;-8.87;80.76
69911;BME280;63555;49.920;17.868;2022-12-18T17:08:34;100715.41;;;-9.22;80.40
69911;BME280;63555;49.920;17.868;2022-12-18T17:13:35;100720.97;;;-9.56;80.10
69911;BME280;63555;49.920;17.868;2022-12-18T17:18:35;100720.47;;;-9.92;78.92
69911;BME280;63555;49.920;17.868;2022-12-18T17:23:36;100713.00;;;-10.10;79.92
69911;BME280;63555;49.920;17.868;2022-12-18T17:28:38;100725.09;;;-10.28;79.17
69911;BME280;63555;49.920;17.868;2022-12-18T17:33:39;100733.78;;;-10.44;79.15
69911;BME280;63555;49.920;17.868;2022-12-18T17:38:39;100742.44;;;-10.61;79.74
69911;BME280;63555;49.920;17.868;2022-12-18T17:43:41;100747.66;;;-10.79;78.52
69911;BME280;63555;49.920;17.868;2022-12-18T17:48:45;100753.25;;;-11.07;77.64
69911;BME280;63555;49.920;17.868;2022-12-18T17:53:47;100759.94;;;-11.28;78.05
69911;BME280;63555;49.920;17.868;2022-12-18T17:58:48;100762.38;;;-11.31;78.80
69911;BME280;63555;49.920;17.868;2022-12-18T18:03:50;100766.84;;;-11.45;77.84
69911;BME280;63555;49.920;17.868;2022-12-18T18:08:51;100768.13;;;-12.11;76.50
69911;BME280;63555;49.920;17.868;2022-12-18T18:13:52;100783.88;;;-12.70;76.43
69911;BME280;63555;49.920;17.868;2022-12-18T18:19:08;100795.72;;;-13.03;77.05
69911;BME280;63555;49.920;17.868;2022-12-18T18:24:10;100797.06;;;-13.27;76.81
69911;BME280;63555;49.920;17.868;2022-12-18T18:29:14;100789.84;;;-13.52;76.58
69911;BME280;63555;49.920;17.868;2022-12-18T18:34:25;100789.16;;;-13.80;75.96
69911;BME280;63555;49.920;17.868;2022-12-18T18:39:27;100786.13;;;-14.04;76.69
69911;BME280;63555;49.920;17.868;2022-12-18T18:44:27;100790.72;;;-14.13;76.41
69911;BME280;63555;49.920;17.868;2022-12-18T18:49:28;100790.28;;;-14.21;76.82
69911;BME280;63555;49.920;17.868;2022-12-18T18:54:29;100783.13;;;-14.28;76.42
69911;BME280;63555;49.920;17.868;2022-12-18T18:59:30;100791.66;;;-14.42;75.31
69911;BME280;63555;49.920;17.868;2022-12-18T19:04:32;100793.59;;;-14.53;76.78
69911;BME280;63555;49.920;17.868;2022-12-18T19:09:33;100788.00;;;-14.62;75.31
69911;BME280;63555;49.920;17.868;2022-12-18T19:14:35;100789.50;;;-14.66;75.87
69911;BME280;63555;49.920;17.868;2022-12-18T19:19:35;100775.97;;;-14.66;76.08
69911;BME280;63555;49.920;17.868;2022-12-18T19:24:36;100788.53;;;-14.68;75.07
69911;BME280;63555;49.920;17.868;2022-12-18T19:29:36;100794.00;;;-14.75;74.82
69911;BME280;63555;49.920;17.868;2022-12-18T19:34:36;100788.75;;;-14.93;74.38
69911;BME280;63555;49.920;17.868;2022-12-18T19:39:37;100785.75;;;-15.15;74.38
69911;BME280;63555;49.920;17.868;2022-12-18T19:44:40;100780.16;;;-15.24;74.40
69911;BME280;63555;49.920;17.868;2022-12-18T19:49:41;100780.25;;;-15.23;75.74
69911;BME280;63555;49.920;17.868;2022-12-18T19:54:42;100780.00;;;-15.27;74.99
69911;BME280;63555;49.920;17.868;2022-12-18T19:59:43;100777.88;;;-15.34;74.43
69911;BME280;63555;49.920;17.868;2022-12-18T20:04:43;100782.06;;;-15.35;75.17
69911;BME280;63555;49.920;17.868;2022-12-18T20:09:44;100786.53;;;-15.31;74.60
69911;BME280;63555;49.920;17.868;2022-12-18T20:14:44;100782.69;;;-15.24;75.87
69911;BME280;63555;49.920;17.868;2022-12-18T20:19:46;100778.88;;;-15.18;76.27
69911;BME280;63555;49.920;17.868;2022-12-18T20:24:46;100774.50;;;-15.20;75.83
69911;BME280;63555;49.920;17.868;2022-12-18T20:29:47;100766.75;;;-15.23;76.24
69911;BME280;63555;49.920;17.868;2022-12-18T20:34:47;100767.69;;;-15.21;75.07
69911;BME280;63555;49.920;17.868;2022-12-18T20:39:48;100766.13;;;-15.19;75.00
69911;BME280;63555;49.920;17.868;2022-12-18T20:44:51;100771.97;;;-15.20;75.90
69911;BME280;63555;49.920;17.868;2022-12-18T20:49:52;100763.34;;;-15.24;74.58
69911;BME280;63555;49.920;17.868;2022-12-18T20:54:52;100769.69;;;-15.30;74.59
69911;BME280;63555;49.920;17.868;2022-12-18T20:59:53;100762.63;;;-15.36;75.46
69911;BME280;63555;49.920;17.868;2022-12-18T21:04:53;100767.06;;;-15.32;75.96
69911;BME280;63555;49.920;17.868;2022-12-18T21:09:53;100756.88;;;-15.19;76.00
69911;BME280;63555;49.920;17.868;2022-12-18T21:14:54;100756.81;;;-15.05;76.28
69911;BME280;63555;49.920;17.868;2022-12-18T21:19:54;100769.38;;;-14.92;76.50
69911;BME280;63555;49.920;17.868;2022-12-18T21:24:54;100778.66;;;-14.78;76.37
69911;BME280;63555;49.920;17.868;2022-12-18T21:29:55;100792.47;;;-14.58;76.29
69911;BME280;63555;49.920;17.868;2022-12-18T21:34:55;100784.50;;;-14.50;76.96
69911;BME280;63555;49.920;17.868;2022-12-18T21:39:56;100770.66;;;-14.40;77.08
69911;BME280;63555;49.920;17.868;2022-12-18T21:44:56;100773.38;;;-14.37;76.54
69911;BME280;63555;49.920;17.868;2022-12-18T21:49:57;100773.72;;;-14.31;77.02
69911;BME280;63555;49.920;17.868;2022-12-18T21:54:57;100774.50;;;-14.32;75.98
69911;BME280;63555;49.920;17.868;2022-12-18T21:59:58;100783.59;;;-14.35;76.52
69911;BME280;63555;49.920;17.868;2022-12-18T22:04:58;100781.06;;;-14.35;76.01
69911;BME280;63555;49.920;17.868;2022-12-18T22:09:58;100773.72;;;-14.31;77.16
69911;BME280;63555;49.920;17.868;2022-12-18T22:14:59;100776.03;;;-14.19;76.49
69911;BME280;63555;49.920;17.868;2022-12-18T22:20:00;100766.19;;;-13.98;76.83
69911;BME280;63555;49.920;17.868;2022-12-18T22:25:00;100758.81;;;-13.79;77.00
69911;BME280;63555;49.920;17.868;2022-12-18T22:30:01;100743.47;;;-13.66;77.03
69911;BME280;63555;49.920;17.868;2022-12-18T22:35:05;100750.81;;;-13.70;76.58
69911;BME280;63555;49.920;17.868;2022-12-18T22:40:06;100738.78;;;-13.74;76.00
69911;BME280;63555;49.920;17.868;2022-12-18T22:45:07;100743.78;;;-13.91;75.35
69911;BME280;63555;49.920;17.868;2022-12-18T22:50:10;100736.88;;;-14.40;74.45
69911;BME280;63555;49.920;17.868;2022-12-18T22:55:11;100726.47;;;-14.61;75.74
69911;BME280;63555;49.920;17.868;2022-12-18T23:00:12;100734.84;;;-14.62;76.48
69911;BME280;63555;49.920;17.868;2022-12-18T23:05:12;100725.66;;;-14.60;76.33
69911;BME280;63555;49.920;17.868;2022-12-18T23:10:13;100721.47;;;-14.60;75.48
69911;BME280;63555;49.920;17.868;2022-12-18T23:15:13;100715.00;;;-14.55;75.79
69911;BME280;63555;49.920;17.868;2022-12-18T23:20:13;100715.50;;;-14.45;76.71
69911;BME280;63555;49.920;17.868;2022-12-18T23:25:14;100707.59;;;-14.35;77.01
69911;BME280;63555;49.920;17.868;2022-12-18T23:30:15;100710.53;;;-14.28;75.95
69911;BME280;63555;49.920;17.868;2022-12-18T23:35:16;100708.00;;;-14.28;76.84
69911;BME280;63555;49.920;17.868;2022-12-18T23:40:16;100707.75;;;-14.32;75.71
69911;BME280;63555;49.920;17.868;2022-12-18T23:45:16;100692.81;;;-14.44;75.88
69911;BME280;63555;49.920;17.868;2022-12-18T23:50:17;100694.41;;;-14.75;74.36
69911;BME280;63555;49.920;17.868;2022-12-18T23:55:17;100697.75;;;-14.91;74.84
